Nearby METAR Reports

 

KAVP - Avoca/Wilkes B., Pennsylvania, USA
Distance from station: NE 13mi, 20km
Updated: Tue, 07-Feb-2023 8:07pm PST
Mist, Mostly cloudy
Mist, Mostly cloudy
 Wind from W
Wind: W 7 mph , 11 km/h
Temperature: 36°F , 2°C
Wind Chill: 30°F , -1°C
Dew Point: 30°F , -1°C
Humidity: 81%
Barometer: 30.07 inHg , 1018.3 hPa
Summary: Mist
Clouds: Mostly Cloudy
Visibility: 6 miles , 10 km
Cloud details: Mostly Cloudy 2200 ft
2023/02/08 04:07 KAVP 080407Z 26006KT 6SM BR BKN022 02/M01 A3007 RMK AO2 T00171006
KMPO - Mt. Pocono, Pennsylvania, USA
Distance from station: ESE 28mi, 45km
Updated: Tue, 07-Feb-2023 7:53pm PST
Mostly Cloudy
Mostly Cloudy
 Wind from W
Wind: W 10 mph , 17 km/h
Temperature: 32°F , 0°C
Wind Chill: 24°F , -4°C
Dew Point: 28°F , -2°C
Humidity: 87%
Barometer: 30.04 inHg , 1017.3 hPa
Clouds: Mostly Cloudy
Visibility: 8 miles , 13 km
Cloud details: Few Clouds 1800 ft
Partly Cloudy 4900 ft
Mostly Cloudy 12000 ft
2023/02/08 03:53 KMPO 080353Z AUTO 26009KT 8SM FEW018 SCT049 BKN120 00/M02 A3004 RMK AO2 SLP195 T00001017
 
KABE - Allentown, Pennsylvania, USA
Distance from station: SSE 46mi, 74km
Updated: Tue, 07-Feb-2023 7:51pm PST
Mostly Cloudy
Mostly Cloudy
 Wind from calm
Wind: Calm
Temperature: 37°F , 3°C
Dew Point: 28°F , -2°C
Humidity: 70%
Barometer: 30.11 inHg , 1019.6 hPa
Clouds: Mostly Cloudy
Visibility: 10 miles , 16 km
Cloud details: Partly Cloudy 6500 ft
Mostly Cloudy 10000 ft
2023/02/08 03:51 KABE 080351Z 00000KT 10SM SCT065 BKN100 03/M02 A3011 RMK AO2 SLP201 T00331022
KXLL - Allentown Queen, Pennsylvania, USA
Distance from station: SSE 50mi, 81km
Updated: Tue, 07-Feb-2023 7:55pm PST
Mostly Cloudy
Mostly Cloudy
 Wind from SSW
Wind: SSW 3 mph , 6 km/h
Temperature: 37°F , 3°C
Dew Point: 32°F , 0°C
Humidity: 81%
Barometer: 30.13 inHg , 1020.3 hPa
Clouds: Mostly Cloudy
Visibility: 10 miles , 16 km
Cloud details: Partly Cloudy 6000 ft
Partly Cloudy 6500 ft
Mostly Cloudy 9000 ft
2023/02/08 03:55 KXLL 080355Z AUTO 20003KT 10SM SCT060 SCT065 BKN090 03/00 A3013 RMK AO2
 
KIPT - Williamsport, Pennsylvania, USA
Distance from station: W 52mi, 84km
Updated: Tue, 07-Feb-2023 7:54pm PST
Mist, Clear
Mist, Clear
 Wind from calm
Wind: Calm
Temperature: 36°F , 2°C
Dew Point: 30°F , -1°C
Humidity: 81%
Barometer: 30.07 inHg , 1018.3 hPa
Summary: Mist
Clouds: Clear
Visibility: 6 miles , 10 km
2023/02/08 03:54 KIPT 080354Z AUTO 00000KT 6SM BR CLR 02/M01 A3007 RMK AO2 SLP187 T00171006
KSEG - Selinsgrove, Pennsylvania, USA
Distance from station: WSW 57mi, 92km
Updated: Tue, 07-Feb-2023 7:53pm PST
Partly Cloudy
Partly Cloudy
 Wind from calm
Wind: Calm
Temperature: 37°F , 3°C
Dew Point: 32°F , 0°C
Humidity: 81%
Barometer: 30.10 inHg , 1019.3 hPa
Clouds: Partly Cloudy
Visibility: 9 miles , 14 km
Cloud details: Partly Cloudy 12000 ft
2023/02/08 03:53 KSEG 080353Z AUTO 00000KT 9SM SCT120 03/00 A3010 RMK AO2 SLP197 T00280000
 
KRDG - Reading, Pennsylvania, USA
Distance from station: S 59mi, 95km
Updated: Tue, 07-Feb-2023 7:54pm PST
Overcast
Overcast
 Wind from S
Wind: S 6 mph , 9 km/h
Temperature: 39°F , 4°C
Wind Chill: 35°F , 2°C
Dew Point: 32°F , 0°C
Humidity: 75%
Barometer: 30.12 inHg , 1020 hPa
Clouds: Overcast
Visibility: 9 miles , 14 km
Cloud details: Mostly Cloudy 6000 ft
Overcast 10000 ft
2023/02/08 03:54 KRDG 080354Z 17005KT 9SM BKN060 OVC100 04/00 A3012 RMK AO2 SLP206 T00440000
KUKT - Quakertown Arp, Pennsylvania, USA
Distance from station: SSE 61mi, 98km
Updated: Tue, 07-Feb-2023 7:55pm PST
Mostly Cloudy
Mostly Cloudy
 Wind from calm
Wind: Calm
Temperature: 37°F , 3°C
Dew Point: 34°F , 1°C
Humidity: 87%
Barometer: 30.12 inHg , 1020 hPa
Clouds: Mostly Cloudy
Visibility: 9 miles , 14 km
Cloud details: Mostly Cloudy 5000 ft
Mostly Cloudy 6000 ft
2023/02/08 03:55 KUKT 080355Z AUTO 00000KT 9SM BKN050 BKN060 03/01 A3012 RMK A01
 
K12N - Andover, New Jersey, USA
Distance from station: ESE 63mi, 101km
Updated: Tue, 07-Feb-2023 7:54pm PST

 Wind from calm
Wind: Calm
Temperature: 36°F , 2°C
Dew Point: 34°F , 1°C
Humidity: 93%
Barometer: 30.11 inHg , 1019.6 hPa
2023/02/08 03:54 K12N 080354Z AUTO 00000KT 02/01 A3011 RMK AO1 SLP205 T00220006
KMUI - Muir Aaf/Indiant, Pennsylvania, USA
Distance from station: SSW 65mi, 105km
Updated: Tue, 07-Feb-2023 6:55pm PST
NOT Current
Nearby showers, Mostly cloudy
Nearby showers, Mostly cloudy
 Wind from calm
Wind: Calm
Temperature: 39°F , 4°C
Dew Point: 30°F , -1°C
Humidity: 70%
Barometer: 30.17 inHg , 1021.7 hPa
Summary: Nearby Showers
Clouds: Mostly Cloudy
Visibility: 10 miles , 16 km
Cloud details: Mostly Cloudy 5500 ft
Mostly Cloudy 8000 ft
2023/02/08 02:55 KMUI 080255Z COR 00000KT 10SM VCSH BKN055 BKN080 04/M01 A3017 RMK SLPNO WND DATA ESTMD ALSTG ESTMD 60000 50000 LAST COR 0256
 
KFWN - Sussex, New Jersey, USA
Distance from station: E 66mi, 107km
Updated: Tue, 07-Feb-2023 7:53pm PST
Overcast
Overcast
 Wind from calm
Wind: Calm
Temperature: 36°F , 2°C
Dew Point: 34°F , 1°C
Humidity: 93%
Barometer: 30.10 inHg , 1019.3 hPa
Clouds: Overcast
Visibility: 10 miles , 16 km
Cloud details: Overcast 6000 ft
2023/02/08 03:53 KFWN 080353Z AUTO 00000KT 10SM OVC060 02/01 A3010 RMK AO2 SLP198 T00220006
KMSV - Monticello, New York, USA
Distance from station: ENE 67mi, 108km
Updated: Tue, 07-Feb-2023 7:56pm PST
Mostly Cloudy
Mostly Cloudy
 Wind from calm
Wind: Calm
Temperature: 30°F , -1°C
Dew Point: 27°F , -3°C
Humidity: 86%
Barometer: 30.05 inHg , 1017.6 hPa
Clouds: Mostly Cloudy
Visibility: 8 miles , 13 km
Cloud details: Mostly Cloudy 6500 ft
2023/02/08 03:56 KMSV 080356Z AUTO 00000KT 8SM BKN065 M01/M03 A3005 RMK AO2 SLP192 T10111028 FZRANO
 
KBGM - Binghamton, New York, USA
Distance from station: N 69mi, 111km
Updated: Tue, 07-Feb-2023 7:53pm PST
Mostly Cloudy
Mostly Cloudy
 Wind from SSW
Wind: SSW 10 mph , 17 km/h
Temperature: 34°F , 1°C
Wind Chill: 26°F , -3°C
Dew Point: 28°F , -2°C
Humidity: 81%
Barometer: 29.99 inHg , 1015.6 hPa
Clouds: Mostly Cloudy
Visibility: 9 miles , 14 km
Cloud details: Few Clouds 3800 ft
Mostly Cloudy 6000 ft
2023/02/08 03:53 KBGM 080353Z AUTO 21009KT 9SM FEW038 BKN060 01/M02 A2999 RMK AO2 SLP172 T00111017
KPTW - Pottstown, Pennsylvania, USA
Distance from station: SSE 71mi, 114km
Updated: Mon, 23-Jan-2023 9:01am PST
NOT Current
Light rain, Mist, Overcast
Light rain, Mist, Overcast
 Wind from WNW
Wind: WNW 9 mph , 15 km/h
Temperature: 36°F , 2°C
Wind Chill: 29°F , -2°C
Dew Point: 34°F , 1°C
Humidity: 93%
Barometer: 29.66 inHg , 1004.4 hPa
Summary: Light rain, Mist
Clouds: Overcast
Visibility: 6 miles , 10 km
Cloud details: Partly Cloudy 1100 ft
Mostly Cloudy 1900 ft
Overcast 2500 ft
2023/01/23 17:01 KPTW 231701Z AUTO 29008KT 6SM -RA BR SCT011 BKN019 OVC025 02/01 A2966 RMK AO2 P0001 T00170011
 
KDYL - Doylestown, Pennsylvania, USA
Distance from station: SE 74mi, 119km
Updated: Tue, 07-Feb-2023 7:54pm PST
Overcast
Overcast
 Wind from S
Wind: S 5 mph , 7 km/h
Temperature: 39°F , 4°C
Wind Chill: 35°F , 2°C
Dew Point: 30°F , -1°C
Humidity: 70%
Barometer: 30.12 inHg , 1020 hPa
Clouds: Overcast
Visibility: 10 miles , 16 km
Cloud details: Overcast 5500 ft
2023/02/08 03:54 KDYL 080354Z AUTO 19004KT 10SM OVC055 04/M01 A3012 RMK AO2 RAE03 SLP206 P0000 T00441011
KSMQ - Somerville, New Jersey, USA
Distance from station: ESE 77mi, 124km
Updated: Tue, 07-Feb-2023 7:53pm PST
Overcast
Overcast
 Wind from calm
Wind: Calm
Temperature: 36°F , 2°C
Dew Point: 34°F , 1°C
Humidity: 93%
Barometer: 30.13 inHg , 1020.3 hPa
Clouds: Overcast
Visibility: 10 miles , 16 km
Cloud details: Overcast 5500 ft
2023/02/08 03:53 KSMQ 080353Z AUTO 00000KT 10SM OVC055 02/01 A3013 RMK AO2 RAB12E27 SLP203 P0000 T00220006
 
KLNS - Lancaster, Pennsylvania, USA
Distance from station: SSW 79mi, 127km
Updated: Tue, 07-Feb-2023 7:53pm PST
Light rain, Overcast
Light rain, Overcast
 Wind from SSE
Wind: SSE 5 mph , 7 km/h
Temperature: 39°F , 4°C
Wind Chill: 35°F , 2°C
Dew Point: 32°F , 0°C
Humidity: 75%
Barometer: 30.13 inHg , 1020.3 hPa
Summary: Light Rain
Clouds: Overcast
Visibility: 8 miles , 13 km
Cloud details: Overcast 7000 ft
2023/02/08 03:53 KLNS 080353Z 16004KT 8SM -RA OVC070 04/00 A3013 RMK AO2 RAB0259E13B49 SLP206 P0000 T00390000
KELM - Elmira, New York, USA
Distance from station: NW 82mi, 132km
Updated: Tue, 07-Feb-2023 7:53pm PST
Clear
Clear
 Wind from calm
Wind: Calm
Temperature: 34°F , 1°C
Dew Point: 30°F , -1°C
Humidity: 87%
Barometer: 30.01 inHg , 1016.3 hPa
Clouds: Clear
Visibility: 10 miles , 16 km
2023/02/08 03:53 KELM 080353Z 00000KT 10SM CLR 01/M01 A3001 RMK AO2 SLP172 T00111011
 
KLOM - Philly Wings F, Pennsylvania, USA
Distance from station: SSE 82mi, 132km
Updated: Tue, 07-Feb-2023 7:55pm PST
Overcast
Overcast
 Wind from calm
Wind: Calm
Temperature: 37°F , 3°C
Dew Point: 32°F , 0°C
Humidity: 81%
Barometer: 30.16 inHg , 1021.3 hPa
Clouds: Overcast
Visibility: 10 miles , 16 km
Cloud details: Overcast 6000 ft
2023/02/08 03:55 KLOM 080355Z AUTO 00000KT 10SM OVC060 03/00 A3016 RMK AO2 T00290005
KMMU - Morristown Muni, New Jersey, USA
Distance from station: ESE 83mi, 134km
Updated: Tue, 07-Feb-2023 7:55pm PST
Overcast
Overcast
 Wind from calm
Wind: Calm
Temperature: 37°F , 3°C
Dew Point: 32°F , 0°C
Humidity: 81%
Barometer: 30.13 inHg , 1020.3 hPa
Clouds: Overcast
Visibility: 10 miles , 16 km
Cloud details: Overcast 7000 ft
2023/02/08 03:55 KMMU 080355Z AUTO 00000KT 10SM OVC070 03/00 A3013 RMK AO2

Metar display script from Saratoga-Weather.org